sensor_id;sensor_type;location;lat;lon;timestamp;temperature;humidity
5792;DHT22;2922;53.482;10.006;2023-04-19T00:01:30;6.20;99.90
5792;DHT22;2922;53.482;10.006;2023-04-19T00:03:56;6.20;99.90
5792;DHT22;2922;53.482;10.006;2023-04-19T00:06:22;6.20;99.90
5792;DHT22;2922;53.482;10.006;2023-04-19T00:08:49;6.20;99.90
5792;DHT22;2922;53.482;10.006;2023-04-19T00:11:14;6.10;99.90
5792;DHT22;2922;53.482;10.006;2023-04-19T00:13:40;6.10;99.90
5792;DHT22;2922;53.482;10.006;2023-04-19T00:16:06;6.10;99.90
5792;DHT22;2922;53.482;10.006;2023-04-19T00:18:32;6.10;99.90
5792;DHT22;2922;53.482;10.006;2023-04-19T00:20:57;6.10;99.90
5792;DHT22;2922;53.482;10.006;2023-04-19T00:23:23;6.00;99.90
5792;DHT22;2922;53.482;10.006;2023-04-19T00:25:49;6.00;99.90
5792;DHT22;2922;53.482;10.006;2023-04-19T00:28:15;6.00;99.90
5792;DHT22;2922;53.482;10.006;2023-04-19T00:30:41;6.00;99.90
5792;DHT22;2922;53.482;10.006;2023-04-19T00:33:06;5.90;99.90
5792;DHT22;2922;53.482;10.006;2023-04-19T00:35:40;5.90;99.90
5792;DHT22;2922;53.482;10.006;2023-04-19T00:38:08;5.90;99.90
5792;DHT22;2922;53.482;10.006;2023-04-19T00:40:33;5.90;99.90
5792;DHT22;2922;53.482;10.006;2023-04-19T00:43:00;5.80;99.90
5792;DHT22;2922;53.482;10.006;2023-04-19T00:45:25;5.80;99.90
5792;DHT22;2922;53.482;10.006;2023-04-19T00:47:51;5.70;99.90
5792;DHT22;2922;53.482;10.006;2023-04-19T00:50:17;5.70;99.90
5792;DHT22;2922;53.482;10.006;2023-04-19T00:52:43;5.70;99.90
5792;DHT22;2922;53.482;10.006;2023-04-19T00:55:10;5.70;99.90
5792;DHT22;2922;53.482;10.006;2023-04-19T00:57:36;5.60;99.90
5792;DHT22;2922;53.482;10.006;2023-04-19T01:00:02;5.60;99.90
5792;DHT22;2922;53.482;10.006;2023-04-19T01:02:30;5.60;99.90
5792;DHT22;2922;53.482;10.006;2023-04-19T01:04:56;5.60;99.90
5792;DHT22;2922;53.482;10.006;2023-04-19T01:07:22;5.60;99.90
5792;DHT22;2922;53.482;10.006;2023-04-19T01:09:48;5.60;99.90
5792;DHT22;2922;53.482;10.006;2023-04-19T01:12:13;5.60;99.90
5792;DHT22;2922;53.482;10.006;2023-04-19T01:14:39;5.50;99.90
5792;DHT22;2922;53.482;10.006;2023-04-19T01:17:06;5.50;99.90
5792;DHT22;2922;53.482;10.006;2023-04-19T01:19:31;5.50;99.90
5792;DHT22;2922;53.482;10.006;2023-04-19T01:21:59;5.50;99.90
5792;DHT22;2922;53.482;10.006;2023-04-19T01:24:24;5.50;99.90
5792;DHT22;2922;53.482;10.006;2023-04-19T01:26:50;5.50;99.90
5792;DHT22;2922;53.482;10.006;2023-04-19T01:29:16;5.40;99.90
5792;DHT22;2922;53.482;10.006;2023-04-19T01:31:43;5.40;99.90
5792;DHT22;2922;53.482;10.006;2023-04-19T01:34:13;5.40;99.90
5792;DHT22;2922;53.482;10.006;2023-04-19T01:36:38;5.40;99.90
5792;DHT22;2922;53.482;10.006;2023-04-19T01:39:04;5.40;99.90
5792;DHT22;2922;53.482;10.006;2023-04-19T01:41:30;5.30;99.90
5792;DHT22;2922;53.482;10.006;2023-04-19T01:43:56;5.30;99.90
5792;DHT22;2922;53.482;10.006;2023-04-19T01:46:22;5.30;99.90
5792;DHT22;2922;53.482;10.006;2023-04-19T01:48:47;5.30;99.90
5792;DHT22;2922;53.482;10.006;2023-04-19T01:51:13;5.30;99.90
5792;DHT22;2922;53.482;10.006;2023-04-19T01:53:38;5.30;99.90
5792;DHT22;2922;53.482;10.006;2023-04-19T01:56:04;5.30;99.90
5792;DHT22;2922;53.482;10.006;2023-04-19T01:58:30;5.20;99.90
5792;DHT22;2922;53.482;10.006;2023-04-19T02:00:55;5.20;99.90
5792;DHT22;2922;53.482;10.006;2023-04-19T02:03:21;5.20;99.90
5792;DHT22;2922;53.482;10.006;2023-04-19T02:05:46;5.20;99.90
5792;DHT22;2922;53.482;10.006;2023-04-19T02:08:12;5.20;99.90
5792;DHT22;2922;53.482;10.006;2023-04-19T02:10:37;5.20;99.90
5792;DHT22;2922;53.482;10.006;2023-04-19T02:13:03;5.20;99.90
5792;DHT22;2922;53.482;10.006;2023-04-19T02:15:28;5.20;99.90
5792;DHT22;2922;53.482;10.006;2023-04-19T02:17:54;5.20;99.90
5792;DHT22;2922;53.482;10.006;2023-04-19T02:20:20;5.20;99.90
5792;DHT22;2922;53.482;10.006;2023-04-19T02:22:45;5.10;99.90
5792;DHT22;2922;53.482;10.006;2023-04-19T02:25:12;5.10;99.90
5792;DHT22;2922;53.482;10.006;2023-04-19T02:27:37;5.10;99.90
5792;DHT22;2922;53.482;10.006;2023-04-19T02:30:03;5.10;99.90
5792;DHT22;2922;53.482;10.006;2023-04-19T02:32:29;5.10;99.90
5792;DHT22;2922;53.482;10.006;2023-04-19T02:34:55;5.10;99.90
5792;DHT22;2922;53.482;10.006;2023-04-19T02:37:20;5.10;99.90
5792;DHT22;2922;53.482;10.006;2023-04-19T02:39:46;5.10;99.90
5792;DHT22;2922;53.482;10.006;2023-04-19T02:42:12;5.10;99.90
5792;DHT22;2922;53.482;10.006;2023-04-19T02:44:37;5.10;99.90
5792;DHT22;2922;53.482;10.006;2023-04-19T02:47:03;5.00;99.90
5792;DHT22;2922;53.482;10.006;2023-04-19T02:49:29;5.00;99.90
5792;DHT22;2922;53.482;10.006;2023-04-19T02:51:58;5.00;99.90
5792;DHT22;2922;53.482;10.006;2023-04-19T02:54:24;5.00;99.90
5792;DHT22;2922;53.482;10.006;2023-04-19T02:56:50;5.00;99.90
5792;DHT22;2922;53.482;10.006;2023-04-19T02:59:15;5.00;99.90
5792;DHT22;2922;53.482;10.006;2023-04-19T03:01:41;5.00;99.90
5792;DHT22;2922;53.482;10.006;2023-04-19T03:04:06;5.00;99.90
5792;DHT22;2922;53.482;10.006;2023-04-19T03:06:32;4.90;99.90
5792;DHT22;2922;53.482;10.006;2023-04-19T03:08:57;4.90;99.90
5792;DHT22;2922;53.482;10.006;2023-04-19T03:11:23;4.90;99.90
5792;DHT22;2922;53.482;10.006;2023-04-19T03:13:48;4.90;99.90
5792;DHT22;2922;53.482;10.006;2023-04-19T03:16:14;4.90;99.90
5792;DHT22;2922;53.482;10.006;2023-04-19T03:18:40;4.90;99.90
5792;DHT22;2922;53.482;10.006;2023-04-19T03:21:06;4.90;99.90
5792;DHT22;2922;53.482;10.006;2023-04-19T03:23:33;4.90;99.90
5792;DHT22;2922;53.482;10.006;2023-04-19T03:25:59;4.90;99.90
5792;DHT22;2922;53.482;10.006;2023-04-19T03:28:26;4.80;99.90
5792;DHT22;2922;53.482;10.006;2023-04-19T03:30:51;4.80;99.90
5792;DHT22;2922;53.482;10.006;2023-04-19T03:33:17;4.80;99.90
5792;DHT22;2922;53.482;10.006;2023-04-19T03:35:43;4.80;99.90
5792;DHT22;2922;53.482;10.006;2023-04-19T03:38:09;4.70;99.90
5792;DHT22;2922;53.482;10.006;2023-04-19T03:40:36;4.70;99.90
5792;DHT22;2922;53.482;10.006;2023-04-19T03:43:02;4.70;99.90
5792;DHT22;2922;53.482;10.006;2023-04-19T03:45:29;4.80;99.90
5792;DHT22;2922;53.482;10.006;2023-04-19T03:47:54;4.80;99.90
5792;DHT22;2922;53.482;10.006;2023-04-19T03:50:20;4.80;99.90
5792;DHT22;2922;53.482;10.006;2023-04-19T03:52:45;4.80;99.90
5792;DHT22;2922;53.482;10.006;2023-04-19T03:55:11;4.80;99.90
5792;DHT22;2922;53.482;10.006;2023-04-19T03:57:37;4.80;99.90
5792;DHT22;2922;53.482;10.006;2023-04-19T04:00:03;4.80;99.90
5792;DHT22;2922;53.482;10.006;2023-04-19T04:02:32;4.80;99.90
5792;DHT22;2922;53.482;10.006;2023-04-19T04:04:57;4.80;99.90
5792;DHT22;2922;53.482;10.006;2023-04-19T04:07:23;4.80;99.90
5792;DHT22;2922;53.482;10.006;2023-04-19T04:09:49;4.80;99.90
5792;DHT22;2922;53.482;10.006;2023-04-19T04:12:15;4.90;99.90
5792;DHT22;2922;53.482;10.006;2023-04-19T04:14:40;4.80;99.90
5792;DHT22;2922;53.482;10.006;2023-04-19T04:17:06;4.90;99.90
5792;DHT22;2922;53.482;10.006;2023-04-19T04:19:31;4.90;99.90
5792;DHT22;2922;53.482;10.006;2023-04-19T04:21:57;4.80;99.90
5792;DHT22;2922;53.482;10.006;2023-04-19T04:24:23;4.80;99.90
5792;DHT22;2922;53.482;10.006;2023-04-19T04:26:48;4.80;99.90
5792;DHT22;2922;53.482;10.006;2023-04-19T04:29:14;4.80;99.90
5792;DHT22;2922;53.482;10.006;2023-04-19T04:31:40;4.90;99.90
5792;DHT22;2922;53.482;10.006;2023-04-19T04:34:06;4.80;99.90
5792;DHT22;2922;53.482;10.006;2023-04-19T04:36:33;4.80;99.90
5792;DHT22;2922;53.482;10.006;2023-04-19T04:39:01;4.90;99.90
5792;DHT22;2922;53.482;10.006;2023-04-19T04:41:26;4.90;99.90
5792;DHT22;2922;53.482;10.006;2023-04-19T04:43:52;4.90;99.90
5792;DHT22;2922;53.482;10.006;2023-04-19T04:46:18;4.90;99.90
5792;DHT22;2922;53.482;10.006;2023-04-19T04:48:43;5.00;99.90
5792;DHT22;2922;53.482;10.006;2023-04-19T04:51:09;5.00;99.90
5792;DHT22;2922;53.482;10.006;2023-04-19T04:53:35;5.10;99.90
5792;DHT22;2922;53.482;10.006;2023-04-19T04:56:00;5.10;99.90
5792;DHT22;2922;53.482;10.006;2023-04-19T04:58:26;5.20;99.90
5792;DHT22;2922;53.482;10.006;2023-04-19T05:00:51;5.30;99.90
5792;DHT22;2922;53.482;10.006;2023-04-19T05:03:17;5.40;99.90
5792;DHT22;2922;53.482;10.006;2023-04-19T05:05:42;5.40;99.90
5792;DHT22;2922;53.482;10.006;2023-04-19T05:08:08;5.50;99.90
5792;DHT22;2922;53.482;10.006;2023-04-19T05:10:33;5.60;99.90
5792;DHT22;2922;53.482;10.006;2023-04-19T05:13:00;5.70;99.90
5792;DHT22;2922;53.482;10.006;2023-04-19T05:15:26;5.80;99.90
5792;DHT22;2922;53.482;10.006;2023-04-19T05:17:51;5.80;99.90
5792;DHT22;2922;53.482;10.006;2023-04-19T05:20:17;5.90;99.90
5792;DHT22;2922;53.482;10.006;2023-04-19T05:22:42;5.90;99.90
5792;DHT22;2922;53.482;10.006;2023-04-19T05:25:09;6.00;99.90
5792;DHT22;2922;53.482;10.006;2023-04-19T05:27:34;6.00;99.90
5792;DHT22;2922;53.482;10.006;2023-04-19T05:30:00;6.00;99.90
5792;DHT22;2922;53.482;10.006;2023-04-19T05:32:26;6.10;99.90
5792;DHT22;2922;53.482;10.006;2023-04-19T05:34:52;6.10;99.90
5792;DHT22;2922;53.482;10.006;2023-04-19T05:37:17;6.20;99.90
5792;DHT22;2922;53.482;10.006;2023-04-19T05:39:43;6.20;99.90
5792;DHT22;2922;53.482;10.006;2023-04-19T05:42:08;6.30;99.90
5792;DHT22;2922;53.482;10.006;2023-04-19T05:44:34;6.30;99.90
5792;DHT22;2922;53.482;10.006;2023-04-19T05:46:59;6.30;99.90
5792;DHT22;2922;53.482;10.006;2023-04-19T05:49:25;6.40;99.90
5792;DHT22;2922;53.482;10.006;2023-04-19T05:51:51;6.40;99.90
5792;DHT22;2922;53.482;10.006;2023-04-19T05:54:17;6.50;99.90
5792;DHT22;2922;53.482;10.006;2023-04-19T05:56:42;6.50;99.90
5792;DHT22;2922;53.482;10.006;2023-04-19T05:59:08;6.60;99.90
5792;DHT22;2922;53.482;10.006;2023-04-19T06:01:35;6.70;99.90
5792;DHT22;2922;53.482;10.006;2023-04-19T06:04:01;6.70;99.90
5792;DHT22;2922;53.482;10.006;2023-04-19T06:06:27;6.80;99.90
5792;DHT22;2922;53.482;10.006;2023-04-19T06:08:52;6.80;99.90
5792;DHT22;2922;53.482;10.006;2023-04-19T06:11:18;6.90;99.90
5792;DHT22;2922;53.482;10.006;2023-04-19T06:13:43;7.00;99.90
5792;DHT22;2922;53.482;10.006;2023-04-19T06:16:09;7.10;99.90
5792;DHT22;2922;53.482;10.006;2023-04-19T06:18:35;7.20;99.90
5792;DHT22;2922;53.482;10.006;2023-04-19T06:21:01;7.20;99.90
5792;DHT22;2922;53.482;10.006;2023-04-19T06:23:26;7.30;99.90
5792;DHT22;2922;53.482;10.006;2023-04-19T06:25:52;7.40;99.90
5792;DHT22;2922;53.482;10.006;2023-04-19T06:28:18;7.50;99.90
5792;DHT22;2922;53.482;10.006;2023-04-19T06:30:44;7.60;99.90
5792;DHT22;2922;53.482;10.006;2023-04-19T06:33:09;7.70;99.90
5792;DHT22;2922;53.482;10.006;2023-04-19T06:35:35;7.80;99.90
5792;DHT22;2922;53.482;10.006;2023-04-19T06:38:01;7.90;99.90
5792;DHT22;2922;53.482;10.006;2023-04-19T06:40:26;8.00;99.90
5792;DHT22;2922;53.482;10.006;2023-04-19T06:42:53;8.10;99.90
5792;DHT22;2922;53.482;10.006;2023-04-19T06:45:19;8.20;99.90
5792;DHT22;2922;53.482;10.006;2023-04-19T06:47:44;8.30;99.90
5792;DHT22;2922;53.482;10.006;2023-04-19T06:50:10;8.50;99.90
5792;DHT22;2922;53.482;10.006;2023-04-19T06:52:36;8.50;99.90
5792;DHT22;2922;53.482;10.006;2023-04-19T06:55:02;8.70;99.90
5792;DHT22;2922;53.482;10.006;2023-04-19T06:57:28;8.80;99.90
5792;DHT22;2922;53.482;10.006;2023-04-19T06:59:54;8.80;99.90
5792;DHT22;2922;53.482;10.006;2023-04-19T07:02:19;9.00;99.90
5792;DHT22;2922;53.482;10.006;2023-04-19T07:04:45;9.10;99.90
5792;DHT22;2922;53.482;10.006;2023-04-19T07:07:11;9.20;99.90
5792;DHT22;2922;53.482;10.006;2023-04-19T07:09:37;9.30;99.90
5792;DHT22;2922;53.482;10.006;2023-04-19T07:12:03;9.40;99.90
5792;DHT22;2922;53.482;10.006;2023-04-19T07:14:28;9.50;99.90
5792;DHT22;2922;53.482;10.006;2023-04-19T07:16:54;9.70;99.90
5792;DHT22;2922;53.482;10.006;2023-04-19T07:19:19;9.80;99.90
5792;DHT22;2922;53.482;10.006;2023-04-19T07:21:46;9.90;99.90
5792;DHT22;2922;53.482;10.006;2023-04-19T07:24:12;10.00;99.90
5792;DHT22;2922;53.482;10.006;2023-04-19T07:26:38;10.10;99.90
5792;DHT22;2922;53.482;10.006;2023-04-19T07:29:03;10.20;99.90
5792;DHT22;2922;53.482;10.006;2023-04-19T07:31:29;10.50;99.90
5792;DHT22;2922;53.482;10.006;2023-04-19T07:33:55;10.70;99.90
5792;DHT22;2922;53.482;10.006;2023-04-19T07:36:20;10.70;99.90
5792;DHT22;2922;53.482;10.006;2023-04-19T07:38:46;10.80;99.90
5792;DHT22;2922;53.482;10.006;2023-04-19T07:41:12;10.90;99.90
5792;DHT22;2922;53.482;10.006;2023-04-19T07:43:37;11.00;99.90
5792;DHT22;2922;53.482;10.006;2023-04-19T07:46:13;11.20;99.90
5792;DHT22;2922;53.482;10.006;2023-04-19T07:48:40;11.20;99.90
5792;DHT22;2922;53.482;10.006;2023-04-19T07:51:14;11.40;99.90
5792;DHT22;2922;53.482;10.006;2023-04-19T07:53:41;11.40;99.40
5792;DHT22;2922;53.482;10.006;2023-04-19T07:56:08;11.60;99.90
5792;DHT22;2922;53.482;10.006;2023-04-19T07:58:34;11.70;99.90
5792;DHT22;2922;53.482;10.006;2023-04-19T08:01:00;11.80;99.90
5792;DHT22;2922;53.482;10.006;2023-04-19T08:03:26;11.90;98.90
5792;DHT22;2922;53.482;10.006;2023-04-19T08:05:52;12.20;99.90
5792;DHT22;2922;53.482;10.006;2023-04-19T08:08:18;12.40;98.30
5792;DHT22;2922;53.482;10.006;2023-04-19T08:10:43;12.40;99.50
5792;DHT22;2922;53.482;10.006;2023-04-19T08:13:10;12.40;96.00
5792;DHT22;2922;53.482;10.006;2023-04-19T08:15:36;12.60;97.10
5792;DHT22;2922;53.482;10.006;2023-04-19T08:18:01;12.80;95.60
5792;DHT22;2922;53.482;10.006;2023-04-19T08:20:29;12.80;94.10
5792;DHT22;2922;53.482;10.006;2023-04-19T08:22:56;12.70;89.80
5792;DHT22;2922;53.482;10.006;2023-04-19T08:25:22;12.90;91.50
5792;DHT22;2922;53.482;10.006;2023-04-19T08:27:51;13.00;93.40
5792;DHT22;2922;53.482;10.006;2023-04-19T08:30:17;13.20;92.30
5792;DHT22;2922;53.482;10.006;2023-04-19T08:32:42;13.50;91.10
5792;DHT22;2922;53.482;10.006;2023-04-19T08:35:08;13.40;83.60
5792;DHT22;2922;53.482;10.006;2023-04-19T08:37:34;13.60;89.10
5792;DHT22;2922;53.482;10.006;2023-04-19T08:39:59;13.50;81.00
5792;DHT22;2922;53.482;10.006;2023-04-19T08:42:25;13.60;85.40
5792;DHT22;2922;53.482;10.006;2023-04-19T08:44:51;13.70;80.40
5792;DHT22;2922;53.482;10.006;2023-04-19T08:47:19;14.00;86.50
5792;DHT22;2922;53.482;10.006;2023-04-19T08:49:46;14.10;78.50
5792;DHT22;2922;53.482;10.006;2023-04-19T08:52:12;14.30;84.10
5792;DHT22;2922;53.482;10.006;2023-04-19T08:54:40;14.40;74.30
5792;DHT22;2922;53.482;10.006;2023-04-19T08:57:05;14.60;78.20
5792;DHT22;2922;53.482;10.006;2023-04-19T08:59:33;14.70;74.20
5792;DHT22;2922;53.482;10.006;2023-04-19T09:02:02;14.60;68.00
5792;DHT22;2922;53.482;10.006;2023-04-19T09:04:28;14.60;69.20
5792;DHT22;2922;53.482;10.006;2023-04-19T09:06:54;15.00;76.10
5792;DHT22;2922;53.482;10.006;2023-04-19T09:09:21;15.20;71.60
5792;DHT22;2922;53.482;10.006;2023-04-19T09:11:47;15.10;65.90
5792;DHT22;2922;53.482;10.006;2023-04-19T09:14:15;14.70;59.20
5792;DHT22;2922;53.482;10.006;2023-04-19T09:16:41;14.80;63.10
5792;DHT22;2922;53.482;10.006;2023-04-19T09:19:07;15.00;65.80
5792;DHT22;2922;53.482;10.006;2023-04-19T09:21:41;15.10;58.60
5792;DHT22;2922;53.482;10.006;2023-04-19T09:24:07;15.00;57.70
5792;DHT22;2922;53.482;10.006;2023-04-19T09:26:33;15.00;56.40
5792;DHT22;2922;53.482;10.006;2023-04-19T09:29:01;15.30;57.40
5792;DHT22;2922;53.482;10.006;2023-04-19T09:31:34;15.20;51.60
5792;DHT22;2922;53.482;10.006;2023-04-19T09:34:14;15.40;55.90
5792;DHT22;2922;53.482;10.006;2023-04-19T09:36:40;15.60;52.00
5792;DHT22;2922;53.482;10.006;2023-04-19T09:39:06;15.50;46.60
5792;DHT22;2922;53.482;10.006;2023-04-19T09:41:32;15.40;46.60
5792;DHT22;2922;53.482;10.006;2023-04-19T09:44:11;15.60;50.90
5792;DHT22;2922;53.482;10.006;2023-04-19T09:46:37;15.90;51.60
5792;DHT22;2922;53.482;10.006;2023-04-19T09:49:20;16.20;49.10
5792;DHT22;2922;53.482;10.006;2023-04-19T09:51:49;16.10;46.20
5792;DHT22;2922;53.482;10.006;2023-04-19T09:54:17;16.20;49.00
5792;DHT22;2922;53.482;10.006;2023-04-19T09:56:43;16.20;49.20
5792;DHT22;2922;53.482;10.006;2023-04-19T09:59:10;16.30;43.70
5792;DHT22;2922;53.482;10.006;2023-04-19T10:04:13;16.50;45.70
5792;DHT22;2922;53.482;10.006;2023-04-19T10:06:50;16.20;44.10
5792;DHT22;2922;53.482;10.006;2023-04-19T10:09:17;16.30;43.70
5792;DHT22;2922;53.482;10.006;2023-04-19T10:11:51;16.60;44.00
5792;DHT22;2922;53.482;10.006;2023-04-19T10:14:22;16.60;42.40
5792;DHT22;2922;53.482;10.006;2023-04-19T10:16:49;16.50;41.00
5792;DHT22;2922;53.482;10.006;2023-04-19T10:19:16;16.60;37.70
5792;DHT22;2922;53.482;10.006;2023-04-19T10:21:43;16.60;39.60
5792;DHT22;2922;53.482;10.006;2023-04-19T10:24:12;16.90;40.00
5792;DHT22;2922;53.482;10.006;2023-04-19T10:27:04;17.00;38.40
5792;DHT22;2922;53.482;10.006;2023-04-19T10:32:16;17.10;41.40
5792;DHT22;2922;53.482;10.006;2023-04-19T10:34:42;17.10;37.70
5792;DHT22;2922;53.482;10.006;2023-04-19T10:37:11;16.60;32.70
5792;DHT22;2922;53.482;10.006;2023-04-19T10:39:41;16.80;37.60
5792;DHT22;2922;53.482;10.006;2023-04-19T10:42:07;16.90;38.50
5792;DHT22;2922;53.482;10.006;2023-04-19T10:44:33;16.80;38.30
5792;DHT22;2922;53.482;10.006;2023-04-19T10:46:58;16.90;38.30
5792;DHT22;2922;53.482;10.006;2023-04-19T10:49:25;17.00;38.90
5792;DHT22;2922;53.482;10.006;2023-04-19T10:51:52;17.30;35.50
5792;DHT22;2922;53.482;10.006;2023-04-19T10:54:37;17.40;38.00
5792;DHT22;2922;53.482;10.006;2023-04-19T10:57:04;17.30;35.70
5792;DHT22;2922;53.482;10.006;2023-04-19T10:59:39;17.40;37.10
5792;DHT22;2922;53.482;10.006;2023-04-19T11:07:17;17.20;30.40
5792;DHT22;2922;53.482;10.006;2023-04-19T11:09:46;17.40;34.70
5792;DHT22;2922;53.482;10.006;2023-04-19T11:12:13;17.50;31.90
5792;DHT22;2922;53.482;10.006;2023-04-19T11:14:53;17.40;31.90
5792;DHT22;2922;53.482;10.006;2023-04-19T11:17:28;17.50;30.40
5792;DHT22;2922;53.482;10.006;2023-04-19T11:20:02;17.60;33.10
5792;DHT22;2922;53.482;10.006;2023-04-19T11:25:08;17.50;33.20
5792;DHT22;2922;53.482;10.006;2023-04-19T11:27:35;17.60;32.00
5792;DHT22;2922;53.482;10.006;2023-04-19T11:30:05;17.70;32.10
5792;DHT22;2922;53.482;10.006;2023-04-19T11:32:32;17.60;35.40
5792;DHT22;2922;53.482;10.006;2023-04-19T11:35:03;17.40;29.60
5792;DHT22;2922;53.482;10.006;2023-04-19T11:37:38;17.60;30.70
5792;DHT22;2922;53.482;10.006;2023-04-19T11:40:08;17.60;30.30
5792;DHT22;2922;53.482;10.006;2023-04-19T11:42:34;17.50;30.00
5792;DHT22;2922;53.482;10.006;2023-04-19T11:45:00;17.20;30.30
5792;DHT22;2922;53.482;10.006;2023-04-19T11:47:26;17.20;31.20
5792;DHT22;2922;53.482;10.006;2023-04-19T11:49:54;17.50;32.50
5792;DHT22;2922;53.482;10.006;2023-04-19T11:52:24;17.70;30.50
5792;DHT22;2922;53.482;10.006;2023-04-19T11:54:53;17.80;32.90
5792;DHT22;2922;53.482;10.006;2023-04-19T11:57:29;17.70;29.40
5792;DHT22;2922;53.482;10.006;2023-04-19T12:00:06;17.40;29.80
5792;DHT22;2922;53.482;10.006;2023-04-19T12:02:39;17.30;29.30
5792;DHT22;2922;53.482;10.006;2023-04-19T12:05:13;16.90;29.50
5792;DHT22;2922;53.482;10.006;2023-04-19T12:10:23;17.00;29.70
5792;DHT22;2922;53.482;10.006;2023-04-19T12:12:48;17.00;28.60
5792;DHT22;2922;53.482;10.006;2023-04-19T12:15:14;17.50;34.20
5792;DHT22;2922;53.482;10.006;2023-04-19T12:17:56;17.70;32.80
5792;DHT22;2922;53.482;10.006;2023-04-19T12:20:35;17.50;29.80
5792;DHT22;2922;53.482;10.006;2023-04-19T12:23:01;17.10;29.10
5792;DHT22;2922;53.482;10.006;2023-04-19T12:25:33;17.20;30.20
5792;DHT22;2922;53.482;10.006;2023-04-19T12:28:02;17.10;28.30
5792;DHT22;2922;53.482;10.006;2023-04-19T12:30:28;17.30;29.50
5792;DHT22;2922;53.482;10.006;2023-04-19T12:32:54;17.30;28.40
5792;DHT22;2922;53.482;10.006;2023-04-19T12:35:24;17.20;29.10
5792;DHT22;2922;53.482;10.006;2023-04-19T12:37:56;17.10;29.80
5792;DHT22;2922;53.482;10.006;2023-04-19T12:40:23;17.10;28.40
5792;DHT22;2922;53.482;10.006;2023-04-19T12:42:49;17.30;29.80
5792;DHT22;2922;53.482;10.006;2023-04-19T12:45:15;17.30;29.30
5792;DHT22;2922;53.482;10.006;2023-04-19T12:47:41;17.20;30.00
5792;DHT22;2922;53.482;10.006;2023-04-19T12:50:08;17.60;32.40
5792;DHT22;2922;53.482;10.006;2023-04-19T12:52:34;17.80;33.50
5792;DHT22;2922;53.482;10.006;2023-04-19T12:55:00;17.30;29.90
5792;DHT22;2922;53.482;10.006;2023-04-19T12:57:26;17.50;33.60
5792;DHT22;2922;53.482;10.006;2023-04-19T12:59:51;17.50;30.40
5792;DHT22;2922;53.482;10.006;2023-04-19T13:02:17;17.40;32.50
5792;DHT22;2922;53.482;10.006;2023-04-19T13:04:42;17.70;30.00
5792;DHT22;2922;53.482;10.006;2023-04-19T13:07:08;17.70;32.30
5792;DHT22;2922;53.482;10.006;2023-04-19T13:09:33;17.90;31.60
5792;DHT22;2922;53.482;10.006;2023-04-19T13:11:59;17.90;29.50
5792;DHT22;2922;53.482;10.006;2023-04-19T13:14:26;17.60;31.30
5792;DHT22;2922;53.482;10.006;2023-04-19T13:16:52;17.60;30.90
5792;DHT22;2922;53.482;10.006;2023-04-19T13:19:18;17.60;29.30
5792;DHT22;2922;53.482;10.006;2023-04-19T13:21:43;17.30;28.30
5792;DHT22;2922;53.482;10.006;2023-04-19T13:24:09;17.20;28.80
5792;DHT22;2922;53.482;10.006;2023-04-19T13:26:35;17.20;28.00
5792;DHT22;2922;53.482;10.006;2023-04-19T13:29:01;17.00;27.90
5792;DHT22;2922;53.482;10.006;2023-04-19T13:31:27;16.90;29.00
5792;DHT22;2922;53.482;10.006;2023-04-19T13:33:53;16.90;29.40
5792;DHT22;2922;53.482;10.006;2023-04-19T13:36:19;17.00;29.50
5792;DHT22;2922;53.482;10.006;2023-04-19T13:38:45;16.90;28.10
5792;DHT22;2922;53.482;10.006;2023-04-19T13:41:11;17.10;30.80
5792;DHT22;2922;53.482;10.006;2023-04-19T13:43:37;16.90;29.90
5792;DHT22;2922;53.482;10.006;2023-04-19T13:46:03;16.50;28.70
5792;DHT22;2922;53.482;10.006;2023-04-19T13:48:28;16.50;27.90
5792;DHT22;2922;53.482;10.006;2023-04-19T13:50:55;16.60;28.70
5792;DHT22;2922;53.482;10.006;2023-04-19T13:53:21;16.60;29.40
5792;DHT22;2922;53.482;10.006;2023-04-19T13:55:47;16.50;31.00
5792;DHT22;2922;53.482;10.006;2023-04-19T13:58:12;16.50;28.00
5792;DHT22;2922;53.482;10.006;2023-04-19T14:00:38;16.60;30.80
5792;DHT22;2922;53.482;10.006;2023-04-19T14:03:04;16.70;30.80
5792;DHT22;2922;53.482;10.006;2023-04-19T14:05:29;16.90;30.60
5792;DHT22;2922;53.482;10.006;2023-04-19T14:07:55;16.90;30.30
5792;DHT22;2922;53.482;10.006;2023-04-19T14:10:21;16.60;28.00
5792;DHT22;2922;53.482;10.006;2023-04-19T14:12:47;16.20;28.00
5792;DHT22;2922;53.482;10.006;2023-04-19T14:15:13;16.30;32.80
5792;DHT22;2922;53.482;10.006;2023-04-19T14:17:39;16.60;30.20
5792;DHT22;2922;53.482;10.006;2023-04-19T14:20:05;16.60;29.80
5792;DHT22;2922;53.482;10.006;2023-04-19T14:22:31;16.30;28.00
5792;DHT22;2922;53.482;10.006;2023-04-19T14:24:56;16.30;29.70
5792;DHT22;2922;53.482;10.006;2023-04-19T14:27:23;16.20;29.50
5792;DHT22;2922;53.482;10.006;2023-04-19T14:29:48;16.20;30.70
5792;DHT22;2922;53.482;10.006;2023-04-19T14:32:14;16.00;28.60
5792;DHT22;2922;53.482;10.006;2023-04-19T14:34:40;16.00;30.00
5792;DHT22;2922;53.482;10.006;2023-04-19T14:37:05;15.80;28.80
5792;DHT22;2922;53.482;10.006;2023-04-19T14:39:31;15.70;30.50
5792;DHT22;2922;53.482;10.006;2023-04-19T14:41:56;15.40;27.90
5792;DHT22;2922;53.482;10.006;2023-04-19T14:44:22;15.30;29.00
5792;DHT22;2922;53.482;10.006;2023-04-19T14:46:48;15.20;31.00
5792;DHT22;2922;53.482;10.006;2023-04-19T14:49:14;15.10;28.40
5792;DHT22;2922;53.482;10.006;2023-04-19T14:51:39;15.10;28.90
5792;DHT22;2922;53.482;10.006;2023-04-19T14:54:05;15.00;29.60
5792;DHT22;2922;53.482;10.006;2023-04-19T14:56:30;15.00;30.40
5792;DHT22;2922;53.482;10.006;2023-04-19T14:58:56;14.90;29.00
5792;DHT22;2922;53.482;10.006;2023-04-19T15:01:21;14.80;30.70
5792;DHT22;2922;53.482;10.006;2023-04-19T15:03:50;14.70;29.20
5792;DHT22;2922;53.482;10.006;2023-04-19T15:06:16;14.80;31.20
5792;DHT22;2922;53.482;10.006;2023-04-19T15:08:41;14.80;30.70
5792;DHT22;2922;53.482;10.006;2023-04-19T15:11:08;14.80;29.00
5792;DHT22;2922;53.482;10.006;2023-04-19T15:13:33;14.70;28.30
5792;DHT22;2922;53.482;10.006;2023-04-19T15:16:00;14.50;27.40
5792;DHT22;2922;53.482;10.006;2023-04-19T15:18:26;14.40;29.10
5792;DHT22;2922;53.482;10.006;2023-04-19T15:20:52;14.40;29.70
5792;DHT22;2922;53.482;10.006;2023-04-19T15:23:22;14.40;29.60
5792;DHT22;2922;53.482;10.006;2023-04-19T15:25:47;14.50;29.70
5792;DHT22;2922;53.482;10.006;2023-04-19T15:28:14;14.50;29.20
5792;DHT22;2922;53.482;10.006;2023-04-19T15:30:39;14.30;27.00
5792;DHT22;2922;53.482;10.006;2023-04-19T15:33:05;14.40;29.10
5792;DHT22;2922;53.482;10.006;2023-04-19T15:35:31;14.30;28.00
5792;DHT22;2922;53.482;10.006;2023-04-19T15:37:57;14.20;28.50
5792;DHT22;2922;53.482;10.006;2023-04-19T15:40:22;14.20;26.60
5792;DHT22;2922;53.482;10.006;2023-04-19T15:42:49;14.10;26.60
5792;DHT22;2922;53.482;10.006;2023-04-19T15:45:14;14.20;27.10
5792;DHT22;2922;53.482;10.006;2023-04-19T15:47:40;14.10;27.40
5792;DHT22;2922;53.482;10.006;2023-04-19T15:50:06;14.10;27.10
5792;DHT22;2922;53.482;10.006;2023-04-19T15:52:32;14.10;27.70
5792;DHT22;2922;53.482;10.006;2023-04-19T15:54:58;14.10;27.50
5792;DHT22;2922;53.482;10.006;2023-04-19T15:57:23;14.10;27.00
5792;DHT22;2922;53.482;10.006;2023-04-19T15:59:49;14.10;26.80
5792;DHT22;2922;53.482;10.006;2023-04-19T16:02:14;14.10;27.40
5792;DHT22;2922;53.482;10.006;2023-04-19T16:04:40;14.00;27.10